sensor_id;sensor_type;location;lat;lon;timestamp;P1;durP1;ratioP1;P2;durP2;ratioP2
5147;SDS011;2592;48.140;7.614;2023-08-06T00:02:18;5.80;;;2.60;;
5147;SDS011;2592;48.140;7.614;2023-08-06T00:04:45;4.43;;;2.50;;
5147;SDS011;2592;48.140;7.614;2023-08-06T00:07:11;4.53;;;2.30;;
5147;SDS011;2592;48.140;7.614;2023-08-06T00:09:38;5.50;;;2.80;;
5147;SDS011;2592;48.140;7.614;2023-08-06T00:12:04;3.90;;;2.37;;
5147;SDS011;2592;48.140;7.614;2023-08-06T00:14:32;4.20;;;2.00;;
5147;SDS011;2592;48.140;7.614;2023-08-06T00:16:59;4.40;;;2.27;;
5147;SDS011;2592;48.140;7.614;2023-08-06T00:19:25;3.63;;;2.53;;
5147;SDS011;2592;48.140;7.614;2023-08-06T00:21:51;6.23;;;2.80;;
5147;SDS011;2592;48.140;7.614;2023-08-06T00:24:21;7.60;;;2.87;;
5147;SDS011;2592;48.140;7.614;2023-08-06T00:26:47;8.87;;;2.97;;
5147;SDS011;2592;48.140;7.614;2023-08-06T00:29:13;5.77;;;3.10;;
5147;SDS011;2592;48.140;7.614;2023-08-06T00:31:41;8.30;;;3.63;;
5147;SDS011;2592;48.140;7.614;2023-08-06T00:34:07;7.80;;;3.13;;
5147;SDS011;2592;48.140;7.614;2023-08-06T00:36:34;7.67;;;2.67;;
5147;SDS011;2592;48.140;7.614;2023-08-06T00:39:00;5.30;;;3.27;;
5147;SDS011;2592;48.140;7.614;2023-08-06T00:41:27;8.10;;;2.87;;
5147;SDS011;2592;48.140;7.614;2023-08-06T00:43:53;5.50;;;3.33;;
5147;SDS011;2592;48.140;7.614;2023-08-06T00:46:20;8.20;;;3.60;;
5147;SDS011;2592;48.140;7.614;2023-08-06T00:48:48;8.60;;;3.27;;
5147;SDS011;2592;48.140;7.614;2023-08-06T00:51:14;6.60;;;3.40;;
5147;SDS011;2592;48.140;7.614;2023-08-06T00:53:41;5.90;;;3.50;;
5147;SDS011;2592;48.140;7.614;2023-08-06T00:56:08;6.73;;;4.03;;
5147;SDS011;2592;48.140;7.614;2023-08-06T00:58:35;8.87;;;3.93;;
5147;SDS011;2592;48.140;7.614;2023-08-06T01:01:02;9.53;;;3.47;;
5147;SDS011;2592;48.140;7.614;2023-08-06T01:03:29;4.83;;;2.87;;
5147;SDS011;2592;48.140;7.614;2023-08-06T01:05:56;7.40;;;3.63;;
5147;SDS011;2592;48.140;7.614;2023-08-06T01:08:27;6.57;;;2.90;;
5147;SDS011;2592;48.140;7.614;2023-08-06T01:10:58;11.60;;;2.60;;
5147;SDS011;2592;48.140;7.614;2023-08-06T01:13:28;4.93;;;2.60;;
5147;SDS011;2592;48.140;7.614;2023-08-06T01:15:56;5.50;;;2.87;;
5147;SDS011;2592;48.140;7.614;2023-08-06T01:18:24;5.57;;;3.27;;
5147;SDS011;2592;48.140;7.614;2023-08-06T01:20:52;6.20;;;3.47;;
5147;SDS011;2592;48.140;7.614;2023-08-06T01:23:18;7.47;;;3.10;;
5147;SDS011;2592;48.140;7.614;2023-08-06T01:25:47;7.10;;;3.17;;
5147;SDS011;2592;48.140;7.614;2023-08-06T01:28:16;6.00;;;3.20;;
5147;SDS011;2592;48.140;7.614;2023-08-06T01:30:44;9.50;;;3.20;;
5147;SDS011;2592;48.140;7.614;2023-08-06T01:33:13;7.23;;;3.23;;
5147;SDS011;2592;48.140;7.614;2023-08-06T01:35:42;9.60;;;3.00;;
5147;SDS011;2592;48.140;7.614;2023-08-06T01:38:09;5.97;;;3.00;;
5147;SDS011;2592;48.140;7.614;2023-08-06T01:40:36;10.77;;;3.40;;
5147;SDS011;2592;48.140;7.614;2023-08-06T01:43:02;7.00;;;2.77;;
5147;SDS011;2592;48.140;7.614;2023-08-06T01:45:29;8.03;;;3.30;;
5147;SDS011;2592;48.140;7.614;2023-08-06T01:47:55;5.93;;;3.20;;
5147;SDS011;2592;48.140;7.614;2023-08-06T01:50:22;10.37;;;3.80;;
5147;SDS011;2592;48.140;7.614;2023-08-06T01:52:48;13.07;;;4.07;;
5147;SDS011;2592;48.140;7.614;2023-08-06T01:55:16;3.53;;;2.80;;
5147;SDS011;2592;48.140;7.614;2023-08-06T01:57:43;7.33;;;3.30;;
5147;SDS011;2592;48.140;7.614;2023-08-06T02:00:10;4.97;;;2.80;;
5147;SDS011;2592;48.140;7.614;2023-08-06T02:02:37;7.77;;;3.00;;
5147;SDS011;2592;48.140;7.614;2023-08-06T02:05:03;5.73;;;2.63;;
5147;SDS011;2592;48.140;7.614;2023-08-06T02:07:30;7.17;;;3.07;;
5147;SDS011;2592;48.140;7.614;2023-08-06T02:09:56;8.80;;;2.63;;
5147;SDS011;2592;48.140;7.614;2023-08-06T02:12:24;7.00;;;3.57;;
5147;SDS011;2592;48.140;7.614;2023-08-06T02:14:50;6.27;;;2.90;;
5147;SDS011;2592;48.140;7.614;2023-08-06T02:17:17;7.63;;;2.13;;
5147;SDS011;2592;48.140;7.614;2023-08-06T02:19:43;5.97;;;2.83;;
5147;SDS011;2592;48.140;7.614;2023-08-06T02:22:10;3.30;;;2.33;;
5147;SDS011;2592;48.140;7.614;2023-08-06T02:24:36;8.50;;;2.63;;
5147;SDS011;2592;48.140;7.614;2023-08-06T02:27:02;7.17;;;2.43;;
5147;SDS011;2592;48.140;7.614;2023-08-06T02:29:30;4.70;;;1.77;;
5147;SDS011;2592;48.140;7.614;2023-08-06T02:31:57;4.50;;;2.20;;
5147;SDS011;2592;48.140;7.614;2023-08-06T02:34:24;3.90;;;1.90;;
5147;SDS011;2592;48.140;7.614;2023-08-06T02:36:50;5.70;;;2.00;;
5147;SDS011;2592;48.140;7.614;2023-08-06T02:39:17;4.53;;;1.90;;
5147;SDS011;2592;48.140;7.614;2023-08-06T02:41:43;3.73;;;1.47;;
5147;SDS011;2592;48.140;7.614;2023-08-06T02:44:10;3.00;;;1.43;;
5147;SDS011;2592;48.140;7.614;2023-08-06T02:46:37;3.30;;;1.90;;
5147;SDS011;2592;48.140;7.614;2023-08-06T02:49:04;4.20;;;1.63;;
5147;SDS011;2592;48.140;7.614;2023-08-06T02:51:30;2.90;;;1.27;;
5147;SDS011;2592;48.140;7.614;2023-08-06T02:53:57;5.93;;;1.80;;
5147;SDS011;2592;48.140;7.614;2023-08-06T02:56:23;1.87;;;1.20;;
5147;SDS011;2592;48.140;7.614;2023-08-06T02:58:49;3.10;;;1.47;;
5147;SDS011;2592;48.140;7.614;2023-08-06T03:01:16;2.40;;;1.07;;
5147;SDS011;2592;48.140;7.614;2023-08-06T03:03:43;3.90;;;1.00;;
5147;SDS011;2592;48.140;7.614;2023-08-06T03:06:10;2.10;;;1.13;;
5147;SDS011;2592;48.140;7.614;2023-08-06T03:08:36;3.90;;;0.90;;
5147;SDS011;2592;48.140;7.614;2023-08-06T03:11:03;1.93;;;1.03;;
5147;SDS011;2592;48.140;7.614;2023-08-06T03:13:29;3.40;;;0.97;;
5147;SDS011;2592;48.140;7.614;2023-08-06T03:15:56;1.70;;;0.80;;
5147;SDS011;2592;48.140;7.614;2023-08-06T03:18:23;1.57;;;0.80;;
5147;SDS011;2592;48.140;7.614;2023-08-06T03:20:52;2.03;;;1.00;;
5147;SDS011;2592;48.140;7.614;2023-08-06T03:23:18;1.67;;;0.90;;
5147;SDS011;2592;48.140;7.614;2023-08-06T03:25:45;4.50;;;1.20;;
5147;SDS011;2592;48.140;7.614;2023-08-06T03:28:12;1.83;;;0.77;;
5147;SDS011;2592;48.140;7.614;2023-08-06T03:30:38;5.53;;;1.40;;
5147;SDS011;2592;48.140;7.614;2023-08-06T03:33:05;3.23;;;0.90;;
5147;SDS011;2592;48.140;7.614;2023-08-06T03:35:31;4.10;;;1.07;;
5147;SDS011;2592;48.140;7.614;2023-08-06T03:37:59;2.03;;;0.90;;
5147;SDS011;2592;48.140;7.614;2023-08-06T03:40:26;2.83;;;0.80;;
5147;SDS011;2592;48.140;7.614;2023-08-06T03:42:52;2.73;;;0.77;;
5147;SDS011;2592;48.140;7.614;2023-08-06T03:45:18;2.57;;;1.00;;
5147;SDS011;2592;48.140;7.614;2023-08-06T03:47:45;5.80;;;1.27;;
5147;SDS011;2592;48.140;7.614;2023-08-06T03:50:11;2.57;;;0.90;;
5147;SDS011;2592;48.140;7.614;2023-08-06T03:52:38;2.80;;;0.90;;
5147;SDS011;2592;48.140;7.614;2023-08-06T03:55:06;4.23;;;1.20;;
5147;SDS011;2592;48.140;7.614;2023-08-06T03:57:32;2.57;;;1.10;;
5147;SDS011;2592;48.140;7.614;2023-08-06T03:59:59;5.87;;;1.10;;
5147;SDS011;2592;48.140;7.614;2023-08-06T04:02:25;6.83;;;1.30;;
5147;SDS011;2592;48.140;7.614;2023-08-06T04:04:50;5.27;;;1.20;;
5147;SDS011;2592;48.140;7.614;2023-08-06T04:07:18;6.00;;;1.20;;
5147;SDS011;2592;48.140;7.614;2023-08-06T04:09:52;1.77;;;1.00;;
5147;SDS011;2592;48.140;7.614;2023-08-06T04:12:20;2.00;;;0.80;;
5147;SDS011;2592;48.140;7.614;2023-08-06T04:14:46;1.87;;;0.83;;
5147;SDS011;2592;48.140;7.614;2023-08-06T04:17:12;1.97;;;0.90;;
5147;SDS011;2592;48.140;7.614;2023-08-06T04:19:39;4.00;;;1.10;;
5147;SDS011;2592;48.140;7.614;2023-08-06T04:22:05;2.90;;;1.10;;
5147;SDS011;2592;48.140;7.614;2023-08-06T04:24:32;3.70;;;1.10;;
5147;SDS011;2592;48.140;7.614;2023-08-06T04:26:58;1.30;;;0.70;;
5147;SDS011;2592;48.140;7.614;2023-08-06T04:29:26;2.20;;;1.10;;
5147;SDS011;2592;48.140;7.614;2023-08-06T04:31:53;4.33;;;1.40;;
5147;SDS011;2592;48.140;7.614;2023-08-06T04:34:19;5.33;;;1.20;;
5147;SDS011;2592;48.140;7.614;2023-08-06T04:36:45;4.73;;;1.40;;
5147;SDS011;2592;48.140;7.614;2023-08-06T04:39:12;3.43;;;1.07;;
5147;SDS011;2592;48.140;7.614;2023-08-06T04:41:39;2.47;;;1.13;;
5147;SDS011;2592;48.140;7.614;2023-08-06T04:44:05;3.30;;;1.17;;
5147;SDS011;2592;48.140;7.614;2023-08-06T04:46:33;2.10;;;1.10;;
5147;SDS011;2592;48.140;7.614;2023-08-06T04:48:59;5.60;;;2.07;;
5147;SDS011;2592;48.140;7.614;2023-08-06T04:51:26;5.93;;;1.80;;
5147;SDS011;2592;48.140;7.614;2023-08-06T04:53:52;3.73;;;1.40;;
5147;SDS011;2592;48.140;7.614;2023-08-06T04:56:19;6.97;;;2.13;;
5147;SDS011;2592;48.140;7.614;2023-08-06T04:58:45;7.90;;;1.80;;
5147;SDS011;2592;48.140;7.614;2023-08-06T05:01:11;7.90;;;2.23;;
5147;SDS011;2592;48.140;7.614;2023-08-06T05:03:39;9.17;;;2.00;;
5147;SDS011;2592;48.140;7.614;2023-08-06T05:06:05;17.17;;;2.20;;
5147;SDS011;2592;48.140;7.614;2023-08-06T05:08:32;13.03;;;2.77;;
5147;SDS011;2592;48.140;7.614;2023-08-06T05:10:58;5.37;;;1.70;;
5147;SDS011;2592;48.140;7.614;2023-08-06T05:13:25;6.27;;;1.33;;
5147;SDS011;2592;48.140;7.614;2023-08-06T05:15:53;8.60;;;2.33;;
5147;SDS011;2592;48.140;7.614;2023-08-06T05:18:19;3.93;;;1.73;;
5147;SDS011;2592;48.140;7.614;2023-08-06T05:20:47;10.73;;;2.17;;
5147;SDS011;2592;48.140;7.614;2023-08-06T05:23:13;7.37;;;1.60;;
5147;SDS011;2592;48.140;7.614;2023-08-06T05:25:40;4.43;;;1.87;;
5147;SDS011;2592;48.140;7.614;2023-08-06T05:28:06;13.30;;;2.03;;
5147;SDS011;2592;48.140;7.614;2023-08-06T05:30:33;5.47;;;1.83;;
5147;SDS011;2592;48.140;7.614;2023-08-06T05:33:02;7.90;;;2.50;;
5147;SDS011;2592;48.140;7.614;2023-08-06T05:35:28;5.97;;;1.73;;
5147;SDS011;2592;48.140;7.614;2023-08-06T05:37:56;6.47;;;2.07;;
5147;SDS011;2592;48.140;7.614;2023-08-06T05:40:22;7.90;;;1.87;;
5147;SDS011;2592;48.140;7.614;2023-08-06T05:42:50;9.13;;;1.43;;
5147;SDS011;2592;48.140;7.614;2023-08-06T05:45:16;7.50;;;1.90;;
5147;SDS011;2592;48.140;7.614;2023-08-06T05:47:43;15.40;;;2.23;;
5147;SDS011;2592;48.140;7.614;2023-08-06T05:50:10;5.37;;;1.63;;
5147;SDS011;2592;48.140;7.614;2023-08-06T05:52:36;3.93;;;1.60;;
5147;SDS011;2592;48.140;7.614;2023-08-06T05:55:05;5.87;;;1.77;;
5147;SDS011;2592;48.140;7.614;2023-08-06T05:57:31;4.70;;;1.60;;
5147;SDS011;2592;48.140;7.614;2023-08-06T05:59:57;8.00;;;1.97;;
5147;SDS011;2592;48.140;7.614;2023-08-06T06:02:24;6.70;;;2.00;;
5147;SDS011;2592;48.140;7.614;2023-08-06T06:04:50;11.27;;;2.37;;
5147;SDS011;2592;48.140;7.614;2023-08-06T06:07:17;5.43;;;1.70;;
5147;SDS011;2592;48.140;7.614;2023-08-06T06:09:43;6.87;;;2.00;;
5147;SDS011;2592;48.140;7.614;2023-08-06T06:12:11;5.47;;;2.00;;
5147;SDS011;2592;48.140;7.614;2023-08-06T06:14:37;8.83;;;2.30;;
5147;SDS011;2592;48.140;7.614;2023-08-06T06:17:04;9.10;;;2.00;;
5147;SDS011;2592;48.140;7.614;2023-08-06T06:19:30;3.77;;;1.53;;
5147;SDS011;2592;48.140;7.614;2023-08-06T06:21:57;18.83;;;5.23;;
5147;SDS011;2592;48.140;7.614;2023-08-06T06:24:23;9.53;;;5.20;;
5147;SDS011;2592;48.140;7.614;2023-08-06T06:26:50;7.70;;;4.00;;
5147;SDS011;2592;48.140;7.614;2023-08-06T06:29:18;8.10;;;2.67;;
5147;SDS011;2592;48.140;7.614;2023-08-06T06:31:44;9.40;;;3.27;;
5147;SDS011;2592;48.140;7.614;2023-08-06T06:34:10;6.53;;;2.60;;
5147;SDS011;2592;48.140;7.614;2023-08-06T06:36:37;7.97;;;2.53;;
5147;SDS011;2592;48.140;7.614;2023-08-06T06:39:03;4.67;;;2.10;;
5147;SDS011;2592;48.140;7.614;2023-08-06T06:41:30;4.90;;;1.90;;
5147;SDS011;2592;48.140;7.614;2023-08-06T06:43:58;8.40;;;2.60;;
5147;SDS011;2592;48.140;7.614;2023-08-06T06:46:25;17.50;;;15.00;;
5147;SDS011;2592;48.140;7.614;2023-08-06T06:48:52;7.87;;;3.80;;
5147;SDS011;2592;48.140;7.614;2023-08-06T06:51:18;8.97;;;2.10;;
5147;SDS011;2592;48.140;7.614;2023-08-06T06:53:45;12.80;;;2.20;;
5147;SDS011;2592;48.140;7.614;2023-08-06T06:56:11;6.57;;;2.10;;
5147;SDS011;2592;48.140;7.614;2023-08-06T06:58:37;5.17;;;1.60;;
5147;SDS011;2592;48.140;7.614;2023-08-06T07:01:06;4.80;;;1.60;;
5147;SDS011;2592;48.140;7.614;2023-08-06T07:03:34;6.50;;;1.90;;
5147;SDS011;2592;48.140;7.614;2023-08-06T07:06:00;4.17;;;1.43;;
5147;SDS011;2592;48.140;7.614;2023-08-06T07:08:26;6.40;;;1.80;;
5147;SDS011;2592;48.140;7.614;2023-08-06T07:10:59;9.50;;;2.50;;
5147;SDS011;2592;48.140;7.614;2023-08-06T07:13:25;7.33;;;2.27;;
5147;SDS011;2592;48.140;7.614;2023-08-06T07:15:52;4.90;;;1.83;;
5147;SDS011;2592;48.140;7.614;2023-08-06T07:18:20;5.73;;;1.90;;
5147;SDS011;2592;48.140;7.614;2023-08-06T07:20:49;4.03;;;1.57;;
5147;SDS011;2592;48.140;7.614;2023-08-06T07:23:15;11.80;;;2.20;;
5147;SDS011;2592;48.140;7.614;2023-08-06T07:25:42;7.73;;;2.57;;
5147;SDS011;2592;48.140;7.614;2023-08-06T07:28:09;3.73;;;1.53;;
5147;SDS011;2592;48.140;7.614;2023-08-06T07:30:38;2.43;;;1.30;;
5147;SDS011;2592;48.140;7.614;2023-08-06T07:33:04;4.90;;;1.40;;
5147;SDS011;2592;48.140;7.614;2023-08-06T07:35:31;5.63;;;1.90;;
5147;SDS011;2592;48.140;7.614;2023-08-06T07:37:59;3.80;;;1.67;;
5147;SDS011;2592;48.140;7.614;2023-08-06T07:40:25;4.10;;;1.93;;
5147;SDS011;2592;48.140;7.614;2023-08-06T07:42:52;4.30;;;1.67;;
5147;SDS011;2592;48.140;7.614;2023-08-06T07:45:18;4.00;;;1.70;;
5147;SDS011;2592;48.140;7.614;2023-08-06T07:47:45;4.13;;;2.67;;
5147;SDS011;2592;48.140;7.614;2023-08-06T07:50:11;5.50;;;2.23;;
5147;SDS011;2592;48.140;7.614;2023-08-06T07:52:38;3.30;;;1.90;;
5147;SDS011;2592;48.140;7.614;2023-08-06T07:55:06;5.13;;;1.60;;
5147;SDS011;2592;48.140;7.614;2023-08-06T07:57:32;3.10;;;1.23;;
5147;SDS011;2592;48.140;7.614;2023-08-06T08:00:00;4.40;;;1.63;;
5147;SDS011;2592;48.140;7.614;2023-08-06T08:02:26;3.40;;;1.30;;
5147;SDS011;2592;48.140;7.614;2023-08-06T08:04:52;4.83;;;1.73;;
5147;SDS011;2592;48.140;7.614;2023-08-06T08:07:19;3.70;;;1.70;;
5147;SDS011;2592;48.140;7.614;2023-08-06T08:09:45;1.93;;;1.47;;
5147;SDS011;2592;48.140;7.614;2023-08-06T08:12:14;2.13;;;1.17;;
5147;SDS011;2592;48.140;7.614;2023-08-06T08:14:41;2.43;;;1.10;;
5147;SDS011;2592;48.140;7.614;2023-08-06T08:17:10;2.87;;;1.53;;
5147;SDS011;2592;48.140;7.614;2023-08-06T08:19:36;1.83;;;1.00;;
5147;SDS011;2592;48.140;7.614;2023-08-06T08:22:03;4.47;;;1.37;;
5147;SDS011;2592;48.140;7.614;2023-08-06T08:24:29;2.60;;;1.20;;
5147;SDS011;2592;48.140;7.614;2023-08-06T08:26:56;2.30;;;1.37;;
5147;SDS011;2592;48.140;7.614;2023-08-06T08:29:24;1.90;;;1.03;;
5147;SDS011;2592;48.140;7.614;2023-08-06T08:31:50;3.97;;;1.27;;
5147;SDS011;2592;48.140;7.614;2023-08-06T08:34:16;3.00;;;1.20;;
5147;SDS011;2592;48.140;7.614;2023-08-06T08:36:43;2.07;;;1.30;;
5147;SDS011;2592;48.140;7.614;2023-08-06T08:39:12;3.90;;;1.20;;
5147;SDS011;2592;48.140;7.614;2023-08-06T08:41:38;1.97;;;0.90;;
5147;SDS011;2592;48.140;7.614;2023-08-06T08:44:05;2.03;;;1.00;;
5147;SDS011;2592;48.140;7.614;2023-08-06T08:46:35;2.70;;;1.60;;
5147;SDS011;2592;48.140;7.614;2023-08-06T08:49:02;5.07;;;1.70;;
5147;SDS011;2592;48.140;7.614;2023-08-06T08:51:28;2.83;;;1.20;;
5147;SDS011;2592;48.140;7.614;2023-08-06T08:53:55;2.00;;;0.90;;
5147;SDS011;2592;48.140;7.614;2023-08-06T08:56:22;1.47;;;0.70;;
5147;SDS011;2592;48.140;7.614;2023-08-06T08:58:49;1.00;;;0.53;;
5147;SDS011;2592;48.140;7.614;2023-08-06T09:01:15;0.90;;;0.63;;
5147;SDS011;2592;48.140;7.614;2023-08-06T09:03:43;1.43;;;1.10;;
5147;SDS011;2592;48.140;7.614;2023-08-06T09:06:10;2.00;;;1.00;;
5147;SDS011;2592;48.140;7.614;2023-08-06T09:08:39;1.00;;;0.70;;
5147;SDS011;2592;48.140;7.614;2023-08-06T09:11:08;0.90;;;0.50;;
5147;SDS011;2592;48.140;7.614;2023-08-06T09:13:35;2.50;;;0.60;;
5147;SDS011;2592;48.140;7.614;2023-08-06T09:16:02;1.47;;;0.90;;
5147;SDS011;2592;48.140;7.614;2023-08-06T09:18:29;3.50;;;2.43;;
5147;SDS011;2592;48.140;7.614;2023-08-06T09:20:57;0.90;;;0.60;;
5147;SDS011;2592;48.140;7.614;2023-08-06T09:23:27;1.43;;;0.50;;
5147;SDS011;2592;48.140;7.614;2023-08-06T09:25:54;1.30;;;0.60;;
5147;SDS011;2592;48.140;7.614;2023-08-06T09:28:21;1.10;;;0.70;;
5147;SDS011;2592;48.140;7.614;2023-08-06T09:30:49;0.90;;;0.70;;
5147;SDS011;2592;48.140;7.614;2023-08-06T09:33:17;0.70;;;0.50;;
5147;SDS011;2592;48.140;7.614;2023-08-06T09:35:45;0.93;;;0.50;;
5147;SDS011;2592;48.140;7.614;2023-08-06T09:38:13;0.80;;;0.50;;
5147;SDS011;2592;48.140;7.614;2023-08-06T09:40:39;0.90;;;0.60;;
5147;SDS011;2592;48.140;7.614;2023-08-06T09:43:06;1.00;;;0.60;;
5147;SDS011;2592;48.140;7.614;2023-08-06T09:45:33;1.00;;;0.50;;
5147;SDS011;2592;48.140;7.614;2023-08-06T09:48:00;2.47;;;0.57;;
5147;SDS011;2592;48.140;7.614;2023-08-06T09:50:29;0.90;;;0.50;;
5147;SDS011;2592;48.140;7.614;2023-08-06T09:52:55;1.10;;;0.60;;
5147;SDS011;2592;48.140;7.614;2023-08-06T09:55:23;0.80;;;0.50;;
5147;SDS011;2592;48.140;7.614;2023-08-06T09:57:51;0.90;;;0.57;;
5147;SDS011;2592;48.140;7.614;2023-08-06T10:00:18;0.90;;;0.50;;
5147;SDS011;2592;48.140;7.614;2023-08-06T10:02:45;1.60;;;0.80;;
5147;SDS011;2592;48.140;7.614;2023-08-06T10:05:11;0.80;;;0.50;;
5147;SDS011;2592;48.140;7.614;2023-08-06T10:07:38;0.80;;;0.50;;
5147;SDS011;2592;48.140;7.614;2023-08-06T10:10:06;4.63;;;0.60;;
5147;SDS011;2592;48.140;7.614;2023-08-06T10:12:36;0.80;;;0.50;;
5147;SDS011;2592;48.140;7.614;2023-08-06T10:15:04;0.90;;;0.50;;
5147;SDS011;2592;48.140;7.614;2023-08-06T10:17:33;0.90;;;0.60;;
5147;SDS011;2592;48.140;7.614;2023-08-06T10:20:00;0.80;;;0.57;;
5147;SDS011;2592;48.140;7.614;2023-08-06T10:22:26;1.03;;;0.67;;
5147;SDS011;2592;48.140;7.614;2023-08-06T10:24:53;0.70;;;0.50;;
5147;SDS011;2592;48.140;7.614;2023-08-06T10:27:21;0.90;;;0.60;;
5147;SDS011;2592;48.140;7.614;2023-08-06T10:29:49;1.00;;;0.50;;
5147;SDS011;2592;48.140;7.614;2023-08-06T10:32:15;1.10;;;0.60;;
5147;SDS011;2592;48.140;7.614;2023-08-06T10:34:58;0.90;;;0.60;;
5147;SDS011;2592;48.140;7.614;2023-08-06T10:37:34;0.80;;;0.50;;
5147;SDS011;2592;48.140;7.614;2023-08-06T10:40:00;0.90;;;0.60;;
5147;SDS011;2592;48.140;7.614;2023-08-06T10:42:28;1.73;;;0.60;;
5147;SDS011;2592;48.140;7.614;2023-08-06T10:47:41;1.20;;;0.60;;
5147;SDS011;2592;48.140;7.614;2023-08-06T10:50:10;1.33;;;0.60;;
5147;SDS011;2592;48.140;7.614;2023-08-06T10:52:37;0.80;;;0.50;;
5147;SDS011;2592;48.140;7.614;2023-08-06T10:55:04;1.13;;;0.50;;
5147;SDS011;2592;48.140;7.614;2023-08-06T10:57:30;1.50;;;0.63;;
5147;SDS011;2592;48.140;7.614;2023-08-06T10:59:57;0.70;;;0.50;;
5147;SDS011;2592;48.140;7.614;2023-08-06T11:02:23;2.50;;;0.60;;
5147;SDS011;2592;48.140;7.614;2023-08-06T11:04:51;0.70;;;0.50;;
5147;SDS011;2592;48.140;7.614;2023-08-06T11:07:17;0.80;;;0.50;;
5147;SDS011;2592;48.140;7.614;2023-08-06T11:09:44;0.80;;;0.50;;
5147;SDS011;2592;48.140;7.614;2023-08-06T11:12:10;0.80;;;0.50;;
5147;SDS011;2592;48.140;7.614;2023-08-06T11:14:37;0.90;;;0.60;;
5147;SDS011;2592;48.140;7.614;2023-08-06T11:17:03;0.90;;;0.60;;
5147;SDS011;2592;48.140;7.614;2023-08-06T11:19:30;1.27;;;0.50;;
5147;SDS011;2592;48.140;7.614;2023-08-06T11:21:58;0.70;;;0.50;;
5147;SDS011;2592;48.140;7.614;2023-08-06T11:24:26;0.83;;;0.50;;
5147;SDS011;2592;48.140;7.614;2023-08-06T11:26:52;0.83;;;0.57;;
5147;SDS011;2592;48.140;7.614;2023-08-06T11:29:19;1.00;;;0.80;;
5147;SDS011;2592;48.140;7.614;2023-08-06T11:31:47;0.90;;;0.50;;
5147;SDS011;2592;48.140;7.614;2023-08-06T11:34:13;0.87;;;0.57;;
5147;SDS011;2592;48.140;7.614;2023-08-06T11:36:40;1.00;;;0.60;;
5147;SDS011;2592;48.140;7.614;2023-08-06T11:39:08;1.30;;;0.70;;
5147;SDS011;2592;48.140;7.614;2023-08-06T11:41:35;1.00;;;0.50;;
5147;SDS011;2592;48.140;7.614;2023-08-06T11:44:03;1.50;;;0.60;;
5147;SDS011;2592;48.140;7.614;2023-08-06T11:46:29;2.80;;;2.03;;
5147;SDS011;2592;48.140;7.614;2023-08-06T11:49:15;1.00;;;0.60;;
5147;SDS011;2592;48.140;7.614;2023-08-06T11:51:41;0.90;;;0.60;;
5147;SDS011;2592;48.140;7.614;2023-08-06T11:54:09;0.80;;;0.50;;
5147;SDS011;2592;48.140;7.614;2023-08-06T11:56:36;1.00;;;0.70;;
5147;SDS011;2592;48.140;7.614;2023-08-06T11:59:02;0.80;;;0.60;;
5147;SDS011;2592;48.140;7.614;2023-08-06T12:01:28;1.20;;;0.60;;
5147;SDS011;2592;48.140;7.614;2023-08-06T12:03:58;4.97;;;0.70;;
5147;SDS011;2592;48.140;7.614;2023-08-06T12:06:26;1.87;;;0.80;;
5147;SDS011;2592;48.140;7.614;2023-08-06T12:08:53;1.50;;;0.60;;
5147;SDS011;2592;48.140;7.614;2023-08-06T12:11:21;1.20;;;0.60;;
5147;SDS011;2592;48.140;7.614;2023-08-06T12:13:50;0.93;;;0.60;;
5147;SDS011;2592;48.140;7.614;2023-08-06T12:16:16;0.77;;;0.50;;
5147;SDS011;2592;48.140;7.614;2023-08-06T12:18:44;0.97;;;0.50;;
5147;SDS011;2592;48.140;7.614;2023-08-06T12:21:10;0.80;;;0.60;;
5147;SDS011;2592;48.140;7.614;2023-08-06T12:23:36;0.83;;;0.57;;
5147;SDS011;2592;48.140;7.614;2023-08-06T12:26:03;2.50;;;0.70;;
5147;SDS011;2592;48.140;7.614;2023-08-06T12:28:30;1.17;;;0.50;;
5147;SDS011;2592;48.140;7.614;2023-08-06T12:30:57;1.10;;;0.57;;
5147;SDS011;2592;48.140;7.614;2023-08-06T12:33:23;1.57;;;0.70;;
5147;SDS011;2592;48.140;7.614;2023-08-06T12:35:50;1.00;;;0.70;;
5147;SDS011;2592;48.140;7.614;2023-08-06T12:38:18;2.23;;;0.80;;
5147;SDS011;2592;48.140;7.614;2023-08-06T12:40:44;2.00;;;1.00;;
5147;SDS011;2592;48.140;7.614;2023-08-06T12:43:11;1.10;;;0.70;;
5147;SDS011;2592;48.140;7.614;2023-08-06T12:45:38;2.20;;;0.90;;
5147;SDS011;2592;48.140;7.614;2023-08-06T12:48:05;3.10;;;1.10;;
5147;SDS011;2592;48.140;7.614;2023-08-06T12:50:31;1.30;;;0.90;;
5147;SDS011;2592;48.140;7.614;2023-08-06T12:52:59;1.73;;;0.80;;
5147;SDS011;2592;48.140;7.614;2023-08-06T12:55:26;1.37;;;0.80;;
5147;SDS011;2592;48.140;7.614;2023-08-06T12:57:52;2.67;;;0.70;;
5147;SDS011;2592;48.140;7.614;2023-08-06T13:00:18;1.60;;;0.90;;
5147;SDS011;2592;48.140;7.614;2023-08-06T13:02:46;1.40;;;0.80;;
5147;SDS011;2592;48.140;7.614;2023-08-06T13:05:13;2.07;;;1.40;;
5147;SDS011;2592;48.140;7.614;2023-08-06T13:07:39;2.33;;;0.90;;
5147;SDS011;2592;48.140;7.614;2023-08-06T13:10:06;5.33;;;0.80;;
5147;SDS011;2592;48.140;7.614;2023-08-06T13:12:32;2.50;;;0.80;;
5147;SDS011;2592;48.140;7.614;2023-08-06T13:14:59;3.33;;;0.90;;
5147;SDS011;2592;48.140;7.614;2023-08-06T13:17:25;1.63;;;1.00;;
5147;SDS011;2592;48.140;7.614;2023-08-06T13:19:54;1.97;;;0.80;;
5147;SDS011;2592;48.140;7.614;2023-08-06T13:22:21;2.87;;;1.03;;
5147;SDS011;2592;48.140;7.614;2023-08-06T13:24:47;4.87;;;1.10;;
5147;SDS011;2592;48.140;7.614;2023-08-06T13:27:13;3.53;;;0.70;;
5147;SDS011;2592;48.140;7.614;2023-08-06T13:29:40;1.67;;;0.80;;
5147;SDS011;2592;48.140;7.614;2023-08-06T13:32:06;2.90;;;0.80;;
5147;SDS011;2592;48.140;7.614;2023-08-06T13:34:33;1.50;;;0.90;;
5147;SDS011;2592;48.140;7.614;2023-08-06T13:37:00;1.23;;;0.60;;
5147;SDS011;2592;48.140;7.614;2023-08-06T13:39:27;1.77;;;0.80;;
5147;SDS011;2592;48.140;7.614;2023-08-06T13:41:53;1.40;;;0.77;;
5147;SDS011;2592;48.140;7.614;2023-08-06T13:44:20;2.73;;;1.00;;
5147;SDS011;2592;48.140;7.614;2023-08-06T13:46:46;1.73;;;0.90;;
5147;SDS011;2592;48.140;7.614;2023-08-06T13:49:13;2.87;;;0.73;;
5147;SDS011;2592;48.140;7.614;2023-08-06T13:51:39;1.40;;;0.77;;
5147;SDS011;2592;48.140;7.614;2023-08-06T13:54:07;3.00;;;0.90;;
5147;SDS011;2592;48.140;7.614;2023-08-06T13:56:34;1.40;;;0.73;;
5147;SDS011;2592;48.140;7.614;2023-08-06T13:59:02;1.63;;;0.70;;
5147;SDS011;2592;48.140;7.614;2023-08-06T14:01:29;1.57;;;0.80;;
5147;SDS011;2592;48.140;7.614;2023-08-06T14:03:55;1.20;;;0.80;;
5147;SDS011;2592;48.140;7.614;2023-08-06T14:06:21;2.07;;;0.97;;
5147;SDS011;2592;48.140;7.614;2023-08-06T14:08:48;1.43;;;0.97;;
5147;SDS011;2592;48.140;7.614;2023-08-06T14:11:16;2.40;;;1.10;;
5147;SDS011;2592;48.140;7.614;2023-08-06T14:13:42;2.90;;;1.33;;
5147;SDS011;2592;48.140;7.614;2023-08-06T14:16:08;3.93;;;1.20;;
5147;SDS011;2592;48.140;7.614;2023-08-06T14:18:35;2.70;;;0.83;;
5147;SDS011;2592;48.140;7.614;2023-08-06T14:21:03;2.63;;;1.03;;
5147;SDS011;2592;48.140;7.614;2023-08-06T14:23:29;1.97;;;0.97;;
5147;SDS011;2592;48.140;7.614;2023-08-06T14:25:56;9.83;;;1.27;;
5147;SDS011;2592;48.140;7.614;2023-08-06T14:28:24;1.77;;;1.10;;
5147;SDS011;2592;48.140;7.614;2023-08-06T14:30:50;2.03;;;1.27;;
5147;SDS011;2592;48.140;7.614;2023-08-06T14:33:17;4.30;;;1.50;;
5147;SDS011;2592;48.140;7.614;2023-08-06T14:35:43;2.43;;;1.10;;
5147;SDS011;2592;48.140;7.614;2023-08-06T14:38:09;2.70;;;1.07;;
5147;SDS011;2592;48.140;7.614;2023-08-06T14:40:36;1.73;;;1.20;;
5147;SDS011;2592;48.140;7.614;2023-08-06T14:43:03;3.07;;;1.30;;
5147;SDS011;2592;48.140;7.614;2023-08-06T14:45:31;3.03;;;1.17;;
5147;SDS011;2592;48.140;7.614;2023-08-06T14:47:57;2.50;;;1.10;;
5147;SDS011;2592;48.140;7.614;2023-08-06T14:50:24;2.50;;;1.03;;
5147;SDS011;2592;48.140;7.614;2023-08-06T14:52:50;2.17;;;0.97;;
5147;SDS011;2592;48.140;7.614;2023-08-06T14:55:17;1.30;;;1.00;;
5147;SDS011;2592;48.140;7.614;2023-08-06T14:57:44;2.03;;;1.17;;
5147;SDS011;2592;48.140;7.614;2023-08-06T15:00:11;1.53;;;1.10;;
5147;SDS011;2592;48.140;7.614;2023-08-06T15:02:39;3.47;;;1.00;;
5147;SDS011;2592;48.140;7.614;2023-08-06T15:05:05;2.43;;;1.33;;
5147;SDS011;2592;48.140;7.614;2023-08-06T15:07:32;2.00;;;0.90;;
5147;SDS011;2592;48.140;7.614;2023-08-06T15:10:00;4.40;;;1.33;;
5147;SDS011;2592;48.140;7.614;2023-08-06T15:12:27;2.43;;;1.27;;
5147;SDS011;2592;48.140;7.614;2023-08-06T15:14:53;3.83;;;1.23;;
5147;SDS011;2592;48.140;7.614;2023-08-06T15:17:21;3.07;;;1.20;;